createdAt,value
2023-02-19T00:00:26.213Z,10.43
2023-02-19T00:01:26.354Z,10.44
2023-02-19T00:02:26.564Z,10.44
2023-02-19T00:03:26.735Z,10.38
2023-02-19T00:04:26.776Z,10.46
2023-02-19T00:05:26.986Z,10.44
2023-02-19T00:06:27.035Z,10.46
2023-02-19T00:07:27.170Z,10.46
2023-02-19T00:08:27.269Z,10.44
2023-02-19T00:09:27.416Z,10.44
2023-02-19T00:10:27.570Z,10.44
2023-02-19T00:11:27.701Z,10.47
2023-02-19T00:12:27.832Z,10.44
2023-02-19T00:13:27.971Z,10.47
2023-02-19T00:14:28.069Z,10.47
2023-02-19T00:15:28.248Z,10.47
2023-02-19T00:16:28.315Z,10.46
2023-02-19T00:17:28.458Z,10.44
2023-02-19T00:18:28.562Z,10.47
2023-02-19T00:19:28.721Z,10.49
2023-02-19T00:20:28.807Z,10.46
2023-02-19T00:21:28.944Z,10.46
2023-02-19T00:22:29.079Z,10.46
2023-02-19T00:23:29.210Z,10.46
2023-02-19T00:24:30.395Z,10.43
2023-02-19T00:25:29.483Z,10.47
2023-02-19T00:26:29.600Z,10.46
2023-02-19T00:27:30.716Z,10.44
2023-02-19T00:28:29.888Z,10.43
2023-02-19T00:29:30.028Z,10.46
2023-02-19T00:30:30.217Z,10.43
2023-02-19T00:31:32.643Z,10.43
2023-02-19T00:32:30.464Z,10.39
2023-02-19T00:33:30.589Z,10.43
2023-02-19T00:34:30.722Z,10.46
2023-02-19T00:35:30.865Z,10.46
2023-02-19T00:36:31.038Z,10.39
2023-02-19T00:37:31.128Z,10.44
2023-02-19T00:38:31.382Z,10.43
2023-02-19T00:39:31.382Z,10.43
2023-02-19T00:40:31.531Z,10.46
2023-02-19T00:41:31.656Z,10.46
2023-02-19T00:42:31.790Z,10.47
2023-02-19T00:43:31.943Z,10.44
2023-02-19T00:44:32.031Z,10.46
2023-02-19T00:45:32.158Z,10.47
2023-02-19T00:46:32.320Z,10.47
2023-02-19T00:47:32.421Z,10.49
2023-02-19T00:48:32.612Z,10.51
2023-02-19T00:49:32.709Z,10.51
2023-02-19T00:50:32.831Z,10.47
2023-02-19T00:51:32.983Z,10.49
2023-02-19T00:52:33.106Z,10.49
2023-02-19T00:53:33.244Z,10.44
2023-02-19T00:54:33.340Z,10.49
2023-02-19T00:55:33.537Z,10.46
2023-02-19T00:56:33.595Z,10.47
2023-02-19T00:57:33.747Z,10.44
2023-02-19T00:58:33.844Z,10.46
2023-02-19T00:59:33.962Z,10.44
2023-02-19T01:00:34.114Z,10.47
2023-02-19T01:01:34.251Z,10.46
2023-02-19T01:02:34.372Z,10.44
2023-02-19T01:03:34.500Z,10.49
2023-02-19T01:04:34.657Z,10.49
2023-02-19T01:05:34.801Z,10.46
2023-02-19T01:06:34.949Z,10.46
2023-02-19T01:07:35.048Z,10.46
2023-02-19T01:08:35.179Z,10.46
2023-02-19T01:09:35.320Z,10.44
2023-02-19T01:10:35.422Z,10.43
2023-02-19T01:11:35.566Z,10.42
2023-02-19T01:12:35.705Z,10.39
2023-02-19T01:13:35.851Z,10.35
2023-02-19T01:14:35.972Z,10.39
2023-02-19T01:15:36.116Z,10.35
2023-02-19T01:16:36.213Z,10.36
2023-02-19T01:17:36.386Z,10.35
2023-02-19T01:18:36.462Z,10.34
2023-02-19T01:19:36.592Z,10.35
2023-02-19T01:20:36.733Z,10.35
2023-02-19T01:21:36.885Z,10.34
2023-02-19T01:22:36.994Z,10.25
2023-02-19T01:23:37.091Z,10.34
2023-02-19T01:24:37.243Z,10.35
2023-02-19T01:25:37.394Z,10.29
2023-02-19T01:26:37.522Z,10.35
2023-02-19T01:27:37.660Z,10.34
2023-02-19T01:28:37.796Z,10.32
2023-02-19T01:29:37.942Z,10.31
2023-02-19T01:30:38.034Z,10.31
2023-02-19T01:31:38.320Z,10.29
2023-02-19T01:32:38.371Z,10.31
2023-02-19T01:33:38.450Z,10.31
2023-02-19T01:34:38.589Z,10.31
2023-02-19T01:35:38.698Z,10.31
2023-02-19T01:36:39.579Z,10.31
2023-02-19T01:37:38.986Z,10.29
2023-02-19T01:38:39.111Z,10.31
2023-02-19T01:39:39.325Z,10.28
2023-02-19T01:40:39.447Z,10.25
2023-02-19T01:41:39.550Z,10.29
2023-02-19T01:42:39.592Z,10.28
2023-02-19T01:43:39.734Z,10.28
2023-02-19T01:44:39.894Z,10.28
2023-02-19T01:45:40.052Z,10.28
2023-02-19T01:46:40.252Z,10.25
2023-02-19T01:47:40.377Z,10.26
2023-02-19T01:48:40.542Z,10.24
2023-02-19T01:49:40.641Z,10.25
2023-02-19T01:50:40.889Z,10.24
2023-02-19T01:51:40.926Z,10.24
2023-02-19T01:52:41.075Z,10.24
2023-02-19T01:53:41.214Z,10.24
2023-02-19T01:54:41.374Z,10.22
2023-02-19T01:55:41.537Z,10.22
2023-02-19T01:56:41.625Z,10.20
2023-02-19T01:57:41.794Z,10.20
2023-02-19T01:58:41.940Z,10.17
2023-02-19T01:59:42.104Z,10.18
2023-02-19T02:00:42.291Z,10.14
2023-02-19T02:01:42.382Z,10.11
2023-02-19T02:02:42.489Z,10.14
2023-02-19T02:03:42.630Z,10.10
2023-02-19T02:04:42.738Z,10.14
2023-02-19T02:05:42.872Z,10.13
2023-02-19T02:06:43.012Z,10.13
2023-02-19T02:07:43.113Z,10.10
2023-02-19T02:08:43.249Z,10.11
2023-02-19T02:09:43.381Z,10.10
2023-02-19T02:10:43.525Z,10.11
2023-02-19T02:11:43.702Z,10.11
2023-02-19T02:12:43.844Z,10.10
2023-02-19T02:13:43.980Z,10.10
2023-02-19T02:14:44.118Z,10.09
2023-02-19T02:15:44.257Z,10.10
2023-02-19T02:16:44.384Z,10.09
2023-02-19T02:17:44.515Z,10.06
2023-02-19T02:18:44.643Z,10.09
2023-02-19T02:19:44.784Z,10.01
2023-02-19T02:20:44.917Z,10.06
2023-02-19T02:21:45.044Z,10.06
2023-02-19T02:22:45.172Z,10.04
2023-02-19T02:23:45.305Z,10.04
2023-02-19T02:24:45.419Z,10.02
2023-02-19T02:25:45.560Z,10.04
2023-02-19T02:26:45.648Z,10.04
2023-02-19T02:27:45.783Z,10.01
2023-02-19T02:28:45.943Z,10.02
2023-02-19T02:29:46.095Z,10.02
2023-02-19T02:30:46.251Z,10.01
2023-02-19T02:31:46.511Z,10.01
2023-02-19T02:32:46.597Z,10.01
2023-02-19T02:33:46.787Z,9.99
2023-02-19T02:34:46.904Z,9.99
2023-02-19T02:35:47.055Z,10.02
2023-02-19T02:36:47.196Z,10.01
2023-02-19T02:37:47.334Z,9.99
2023-02-19T02:38:47.474Z,10.01
2023-02-19T02:39:47.599Z,9.95
2023-02-19T02:40:47.717Z,9.96
2023-02-19T02:41:47.834Z,9.96
2023-02-19T02:42:47.970Z,9.95
2023-02-19T02:43:48.093Z,9.95
2023-02-19T02:44:48.212Z,9.89
2023-02-19T02:45:48.451Z,9.86
2023-02-19T02:46:48.489Z,9.93
2023-02-19T02:47:48.618Z,9.88
2023-02-19T02:48:48.745Z,9.92
2023-02-19T02:49:48.917Z,9.85
2023-02-19T02:50:49.021Z,9.88
2023-02-19T02:51:49.141Z,9.91
2023-02-19T02:52:49.281Z,9.93
2023-02-19T02:53:49.435Z,9.96
2023-02-19T02:54:49.556Z,9.95
2023-02-19T02:55:49.681Z,9.93
2023-02-19T02:56:49.843Z,9.83
2023-02-19T02:57:49.974Z,9.86
2023-02-19T02:58:50.122Z,9.86
2023-02-19T02:59:50.263Z,9.88
2023-02-19T03:00:50.432Z,9.91
2023-02-19T03:01:50.627Z,9.81
2023-02-19T03:02:50.736Z,9.89
2023-02-19T03:03:50.909Z,9.92
2023-02-19T03:04:50.964Z,9.92
2023-02-19T03:05:51.090Z,9.88
2023-02-19T03:06:51.211Z,9.86
2023-02-19T03:07:51.332Z,9.91
2023-02-19T03:08:51.464Z,9.83
2023-02-19T03:09:51.610Z,9.88
2023-02-19T03:10:51.748Z,9.81
2023-02-19T03:11:51.868Z,9.85
2023-02-19T03:12:51.997Z,9.85
2023-02-19T03:13:52.122Z,9.83
2023-02-19T03:14:52.210Z,9.88
2023-02-19T03:15:52.344Z,9.86
2023-02-19T03:16:52.543Z,9.83
2023-02-19T03:17:52.601Z,9.80
2023-02-19T03:18:52.730Z,9.83
2023-02-19T03:19:52.861Z,9.80
2023-02-19T03:20:52.991Z,9.80
2023-02-19T03:21:53.126Z,9.83
2023-02-19T03:22:53.249Z,9.85
2023-02-19T03:23:53.419Z,9.78
2023-02-19T03:24:53.472Z,9.80
2023-02-19T03:25:53.598Z,9.73
2023-02-19T03:26:53.718Z,9.65
2023-02-19T03:27:53.852Z,9.55
2023-02-19T03:28:54.020Z,9.55
2023-02-19T03:29:54.166Z,9.50
2023-02-19T03:30:54.299Z,9.52
2023-02-19T03:31:54.555Z,9.52
2023-02-19T03:32:54.528Z,9.52
2023-02-19T03:33:54.665Z,9.48
2023-02-19T03:34:54.812Z,9.45
2023-02-19T03:35:54.954Z,9.50
2023-02-19T03:36:55.113Z,9.52
2023-02-19T03:37:55.250Z,9.53
2023-02-19T03:38:55.344Z,9.52
2023-02-19T03:39:55.466Z,9.52
2023-02-19T03:40:55.575Z,9.52
2023-02-19T03:41:55.727Z,9.45
2023-02-19T03:42:56.266Z,9.55
2023-02-19T03:43:56.032Z,9.55
2023-02-19T03:44:56.154Z,9.55
2023-02-19T03:45:56.302Z,9.53
2023-02-19T03:46:56.438Z,9.50
2023-02-19T03:47:56.594Z,9.49
2023-02-19T03:48:56.725Z,9.55
2023-02-19T03:49:56.854Z,9.56
2023-02-19T03:50:56.984Z,9.52
2023-02-19T03:51:57.106Z,9.53
2023-02-19T03:52:57.224Z,9.53
2023-02-19T03:53:57.375Z,9.53
2023-02-19T03:54:57.464Z,9.53
2023-02-19T03:55:57.577Z,9.52
2023-02-19T03:56:57.708Z,9.56
2023-02-19T03:57:57.826Z,9.56
2023-02-19T03:58:57.959Z,9.56
2023-02-19T03:59:58.086Z,9.55
2023-02-19T04:00:58.238Z,9.56
2023-02-19T04:01:58.412Z,9.55
2023-02-19T04:02:58.542Z,9.58
2023-02-19T04:03:58.707Z,9.55
2023-02-19T04:04:58.951Z,9.58
2023-02-19T04:05:58.917Z,9.58
2023-02-19T04:06:59.051Z,9.59
2023-02-19T04:07:59.160Z,9.58
2023-02-19T04:08:59.300Z,9.55
2023-02-19T04:09:59.450Z,9.60
2023-02-19T04:10:59.573Z,9.59
2023-02-19T04:11:59.691Z,9.56
2023-02-19T04:12:59.837Z,9.53
2023-02-19T04:14:00.117Z,9.56
2023-02-19T04:15:00.154Z,9.55
2023-02-19T04:16:00.247Z,9.55
2023-02-19T04:17:00.376Z,9.56
2023-02-19T04:18:00.497Z,9.56
2023-02-19T04:19:00.647Z,9.56
2023-02-19T04:20:00.763Z,9.58
2023-02-19T04:21:00.891Z,9.56
2023-02-19T04:22:01.028Z,9.56
2023-02-19T04:23:01.182Z,9.55
2023-02-19T04:24:01.336Z,9.50
2023-02-19T04:25:01.468Z,9.52
2023-02-19T04:26:01.656Z,9.50
2023-02-19T04:27:01.790Z,9.52
2023-02-19T04:28:01.930Z,9.52
2023-02-19T04:29:02.048Z,9.49
2023-02-19T04:30:02.270Z,9.49
2023-02-19T04:31:02.448Z,9.48
2023-02-19T04:32:02.545Z,9.50
2023-02-19T04:33:02.689Z,9.49
2023-02-19T04:34:02.796Z,9.50
2023-02-19T04:35:02.926Z,9.49
2023-02-19T04:36:03.065Z,9.44
2023-02-19T04:37:03.190Z,9.45
2023-02-19T04:38:03.340Z,9.52
2023-02-19T04:39:03.466Z,9.52
2023-02-19T04:40:03.577Z,9.45
2023-02-19T04:41:03.719Z,9.48
2023-02-19T04:42:03.840Z,9.50
2023-02-19T04:43:03.980Z,9.50
2023-02-19T04:44:04.121Z,9.52
2023-02-19T04:45:04.261Z,9.50
2023-02-19T04:46:04.500Z,9.50
2023-02-19T04:47:04.592Z,9.52
2023-02-19T04:48:04.728Z,9.52
2023-02-19T04:49:04.860Z,9.48
2023-02-19T04:50:04.985Z,9.48
2023-02-19T04:51:05.118Z,9.48
2023-02-19T04:52:05.281Z,9.48
2023-02-19T04:53:05.437Z,9.42
2023-02-19T04:54:05.578Z,9.48
2023-02-19T04:55:05.709Z,9.49
2023-02-19T04:56:05.846Z,9.45
2023-02-19T04:57:05.973Z,9.48
2023-02-19T04:58:06.081Z,9.48
2023-02-19T04:59:06.198Z,9.45
2023-02-19T05:00:06.328Z,9.42
2023-02-19T05:01:06.513Z,9.45
2023-02-19T05:02:06.615Z,9.42
2023-02-19T05:03:06.740Z,9.44
2023-02-19T05:04:06.878Z,9.44
2023-02-19T05:05:07.029Z,9.41
2023-02-19T05:06:07.161Z,9.44
2023-02-19T05:07:07.282Z,9.45
2023-02-19T05:08:07.403Z,9.42
2023-02-19T05:09:07.532Z,9.40
2023-02-19T05:10:07.656Z,9.40
2023-02-19T05:11:08.041Z,9.41
2023-02-19T05:12:07.938Z,9.40
2023-02-19T05:13:08.066Z,9.42
2023-02-19T05:14:08.213Z,9.41
2023-02-19T05:15:08.357Z,9.38
2023-02-19T05:16:08.506Z,9.37
2023-02-19T05:17:08.604Z,9.40
2023-02-19T05:18:08.733Z,9.41
2023-02-19T05:19:08.859Z,9.40
2023-02-19T05:20:08.976Z,9.37
2023-02-19T05:21:09.486Z,9.41
2023-02-19T05:22:09.301Z,9.41
2023-02-19T05:23:09.440Z,9.41
2023-02-19T05:24:09.581Z,9.40
2023-02-19T05:25:09.708Z,9.41
2023-02-19T05:26:09.834Z,9.38
2023-02-19T05:27:09.955Z,9.41
2023-02-19T05:28:10.076Z,9.38
2023-02-19T05:29:10.239Z,9.38
2023-02-19T05:30:10.377Z,9.38
2023-02-19T05:31:10.829Z,9.38
2023-02-19T05:32:10.682Z,9.38
2023-02-19T05:33:10.757Z,9.41
2023-02-19T05:34:10.892Z,9.42
2023-02-19T05:35:11.032Z,9.40
2023-02-19T05:36:11.179Z,9.41
2023-02-19T05:37:11.303Z,9.38
2023-02-19T05:38:11.425Z,9.38
2023-02-19T05:39:11.566Z,9.40
2023-02-19T05:40:11.736Z,9.41
2023-02-19T05:41:12.329Z,9.38
2023-02-19T05:42:11.984Z,9.37
2023-02-19T05:43:12.119Z,9.38
2023-02-19T05:44:12.264Z,9.35
2023-02-19T05:45:12.413Z,9.37
2023-02-19T05:46:12.627Z,9.31
2023-02-19T05:47:12.717Z,9.37
2023-02-19T05:48:12.866Z,9.34
2023-02-19T05:49:13.005Z,9.31
2023-02-19T05:50:13.126Z,9.32
2023-02-19T05:51:13.270Z,9.34
2023-02-19T05:52:13.414Z,9.35
2023-02-19T05:53:13.554Z,9.35
2023-02-19T05:54:13.704Z,9.37
2023-02-19T05:55:13.821Z,9.35
2023-02-19T05:56:13.946Z,9.34
2023-02-19T05:57:14.075Z,9.34
2023-02-19T05:58:14.225Z,9.35
2023-02-19T05:59:14.373Z,9.32
2023-02-19T06:00:14.502Z,9.32
2023-02-19T06:01:14.634Z,9.27
2023-02-19T06:02:14.802Z,9.32
2023-02-19T06:03:14.954Z,9.31
2023-02-19T06:04:15.078Z,9.34
2023-02-19T06:05:15.196Z,9.32
2023-02-19T06:06:15.316Z,9.32
2023-02-19T06:07:15.441Z,9.30
2023-02-19T06:08:15.585Z,9.31
2023-02-19T06:09:15.721Z,9.32
2023-02-19T06:10:15.824Z,9.27
2023-02-19T06:11:15.972Z,9.31
2023-02-19T06:12:16.083Z,9.27
2023-02-19T06:13:17.789Z,9.31
2023-02-19T06:14:16.310Z,9.30
2023-02-19T06:15:16.432Z,9.32
2023-02-19T06:16:16.610Z,9.34
2023-02-19T06:17:16.684Z,9.24
2023-02-19T06:18:16.882Z,9.27
2023-02-19T06:19:16.946Z,9.26
2023-02-19T06:20:17.071Z,9.27
2023-02-19T06:21:17.212Z,9.30
2023-02-19T06:22:17.359Z,9.31
2023-02-19T06:23:17.492Z,9.31
2023-02-19T06:24:17.643Z,9.31
2023-02-19T06:25:17.781Z,9.31
2023-02-19T06:26:17.955Z,9.30
2023-02-19T06:27:18.081Z,9.31
2023-02-19T06:28:18.234Z,9.31
2023-02-19T06:29:18.374Z,9.26
2023-02-19T06:30:18.554Z,9.30
2023-02-19T06:31:18.685Z,9.22
2023-02-19T06:32:18.900Z,9.30
2023-02-19T06:33:18.965Z,9.32
2023-02-19T06:34:19.052Z,9.30
2023-02-19T06:35:19.193Z,9.31
2023-02-19T06:36:19.348Z,9.27
2023-02-19T06:37:19.474Z,9.24
2023-02-19T06:38:19.599Z,9.27
2023-02-19T06:39:19.713Z,9.30
2023-02-19T06:40:19.858Z,9.31
2023-02-19T06:41:20.017Z,9.30
2023-02-19T06:42:20.133Z,9.30
2023-02-19T06:43:20.247Z,9.30
2023-02-19T06:44:20.388Z,9.31
2023-02-19T06:45:20.552Z,9.26
2023-02-19T06:46:20.616Z,9.30
2023-02-19T06:47:20.743Z,9.30
2023-02-19T06:48:20.866Z,9.26
2023-02-19T06:49:20.997Z,9.27
2023-02-19T06:50:21.149Z,9.26
2023-02-19T06:51:21.285Z,9.27
2023-02-19T06:52:21.404Z,9.27
2023-02-19T06:53:21.537Z,9.30
2023-02-19T06:54:21.671Z,9.30
2023-02-19T06:55:21.806Z,9.30
2023-02-19T06:56:21.961Z,9.31
2023-02-19T06:57:22.073Z,9.27
2023-02-19T06:58:22.217Z,9.31
2023-02-19T06:59:22.375Z,9.30
2023-02-19T07:00:22.506Z,9.30
2023-02-19T07:01:22.650Z,9.31
2023-02-19T07:02:22.830Z,9.31
2023-02-19T07:03:22.985Z,9.31
2023-02-19T07:04:23.160Z,9.32
2023-02-19T07:05:23.293Z,9.32
2023-02-19T07:06:23.428Z,9.31
2023-02-19T07:07:23.562Z,9.30
2023-02-19T07:08:23.707Z,9.20
2023-02-19T07:09:23.818Z,9.31
2023-02-19T07:10:23.953Z,9.32
2023-02-19T07:11:24.082Z,9.31
2023-02-19T07:12:24.200Z,9.31
2023-02-19T07:13:24.341Z,9.30
2023-02-19T07:14:24.499Z,9.34
2023-02-19T07:15:24.651Z,9.31
2023-02-19T07:16:24.865Z,9.32
2023-02-19T07:17:25.686Z,9.30
2023-02-19T07:18:25.059Z,9.30
2023-02-19T07:19:25.219Z,9.31
2023-02-19T07:20:25.338Z,9.32
2023-02-19T07:21:25.468Z,9.32
2023-02-19T07:22:25.599Z,9.30
2023-02-19T07:23:25.838Z,9.31
2023-02-19T07:24:25.904Z,9.35
2023-02-19T07:25:26.061Z,9.32
2023-02-19T07:26:26.155Z,9.35
2023-02-19T07:27:26.266Z,9.37
2023-02-19T07:28:26.429Z,9.38
2023-02-19T07:29:26.564Z,9.38
2023-02-19T07:30:26.760Z,9.38
2023-02-19T07:31:26.990Z,9.37
2023-02-19T07:32:26.973Z,9.38
2023-02-19T07:33:27.098Z,9.37
2023-02-19T07:34:27.185Z,9.37
2023-02-19T07:35:27.332Z,9.38
2023-02-19T07:36:27.451Z,9.37
2023-02-19T07:37:27.564Z,9.35
2023-02-19T07:38:27.743Z,9.37
2023-02-19T07:39:27.869Z,9.38
2023-02-19T07:40:28.090Z,9.38
2023-02-19T07:41:28.199Z,9.40
2023-02-19T07:42:28.325Z,9.40
2023-02-19T07:43:28.458Z,9.37
2023-02-19T07:44:28.607Z,9.37
2023-02-19T07:45:28.788Z,9.34
2023-02-19T07:46:28.920Z,9.34
2023-02-19T07:47:29.059Z,9.34
2023-02-19T07:48:29.208Z,9.37
2023-02-19T07:49:29.384Z,9.37
2023-02-19T07:50:29.526Z,9.37
2023-02-19T07:51:29.673Z,9.37
2023-02-19T07:52:29.766Z,9.38
2023-02-19T07:53:29.899Z,9.35
2023-02-19T07:54:30.040Z,9.40
2023-02-19T07:55:30.137Z,9.40
2023-02-19T07:56:30.270Z,9.42
2023-02-19T07:57:30.397Z,9.44
2023-02-19T07:58:30.544Z,9.52
2023-02-19T07:59:30.691Z,9.55
2023-02-19T08:00:30.816Z,9.56
2023-02-19T08:01:31.021Z,9.52
2023-02-19T08:02:31.072Z,9.50
2023-02-19T08:03:31.258Z,9.45
2023-02-19T08:04:31.300Z,9.44
2023-02-19T08:05:31.450Z,9.41
2023-02-19T08:06:31.561Z,9.40
2023-02-19T08:07:31.650Z,9.40
2023-02-19T08:08:31.787Z,9.37
2023-02-19T08:09:31.919Z,9.38
2023-02-19T08:10:32.060Z,9.41
2023-02-19T08:11:32.229Z,9.41
2023-02-19T08:12:32.347Z,9.44
2023-02-19T08:13:32.478Z,9.42
2023-02-19T08:14:32.609Z,9.50
2023-02-19T08:15:32.762Z,9.52
2023-02-19T08:16:42.558Z,9.53
2023-02-19T08:17:34.067Z,9.52
2023-02-19T08:18:33.199Z,9.52
2023-02-19T08:19:33.365Z,9.50
2023-02-19T08:20:33.487Z,9.53
2023-02-19T08:21:34.524Z,9.52
2023-02-19T08:22:33.725Z,9.53
2023-02-19T08:23:33.860Z,9.53
2023-02-19T08:24:34.026Z,9.52
2023-02-19T08:25:34.146Z,9.53
2023-02-19T08:26:34.295Z,9.53
2023-02-19T08:27:34.456Z,9.55
2023-02-19T08:28:34.856Z,9.55
2023-02-19T08:29:34.777Z,9.52
2023-02-19T08:30:35.008Z,9.50
2023-02-19T08:31:35.116Z,9.53
2023-02-19T08:32:35.192Z,9.58
2023-02-19T08:33:35.332Z,9.60
2023-02-19T08:34:35.489Z,9.59
2023-02-19T08:35:35.628Z,9.58
2023-02-19T08:36:35.765Z,9.55
2023-02-19T08:37:35.865Z,9.56
2023-02-19T08:38:35.995Z,9.58
2023-02-19T08:39:36.132Z,9.58
2023-02-19T08:40:36.314Z,9.60
2023-02-19T08:41:38.993Z,9.65
2023-02-19T08:42:36.565Z,9.68
2023-02-19T08:43:36.697Z,9.70
2023-02-19T08:44:36.826Z,9.71
2023-02-19T08:45:37.014Z,9.71
2023-02-19T08:46:37.156Z,9.67
2023-02-19T08:47:37.290Z,9.63
2023-02-19T08:48:37.420Z,9.62
2023-02-19T08:49:37.570Z,9.58
2023-02-19T08:50:37.728Z,9.56
2023-02-19T08:51:37.852Z,9.53
2023-02-19T08:52:38.008Z,9.53
2023-02-19T08:53:38.140Z,9.55
2023-02-19T08:54:38.279Z,9.50
2023-02-19T08:55:38.431Z,9.52
2023-02-19T08:56:38.581Z,9.52
2023-02-19T08:57:38.740Z,9.50
2023-02-19T08:58:38.910Z,9.52
2023-02-19T08:59:39.040Z,9.52
2023-02-19T09:00:39.215Z,9.53
2023-02-19T09:01:39.440Z,9.49
2023-02-19T09:02:39.469Z,9.49
2023-02-19T09:03:39.628Z,9.48
2023-02-19T09:04:39.789Z,9.50
2023-02-19T09:05:39.939Z,9.52
2023-02-19T09:06:40.189Z,9.52
2023-02-19T09:07:40.178Z,9.53
2023-02-19T09:08:40.316Z,9.55
2023-02-19T09:09:40.453Z,9.56
2023-02-19T09:10:40.600Z,9.58
2023-02-19T09:11:40.750Z,9.56
2023-02-19T09:12:40.889Z,9.63
2023-02-19T09:13:41.042Z,9.67
2023-02-19T09:14:41.189Z,9.68
2023-02-19T09:15:41.353Z,9.63
2023-02-19T09:16:41.637Z,9.70
2023-02-19T09:17:41.607Z,9.74
2023-02-19T09:18:41.760Z,9.75
2023-02-19T09:19:41.915Z,9.71
2023-02-19T09:20:42.038Z,9.74
2023-02-19T09:21:42.188Z,9.74
2023-02-19T09:22:42.290Z,9.68
2023-02-19T09:23:42.437Z,9.67
2023-02-19T09:24:42.589Z,9.70
2023-02-19T09:25:42.737Z,9.71
2023-02-19T09:26:42.846Z,9.68
2023-02-19T09:27:43.012Z,9.67
2023-02-19T09:28:43.178Z,9.67
2023-02-19T09:29:43.320Z,9.70
2023-02-19T09:30:43.498Z,9.68
2023-02-19T09:31:43.725Z,9.70
2023-02-19T09:32:43.773Z,9.68
2023-02-19T09:33:43.872Z,9.68
2023-02-19T09:34:44.017Z,9.70
2023-02-19T09:35:44.161Z,9.67
2023-02-19T09:36:44.300Z,9.67
2023-02-19T09:37:44.461Z,9.63
2023-02-19T09:38:44.599Z,9.68
2023-02-19T09:39:44.748Z,9.34
2023-02-19T09:40:44.892Z,9.04
2023-02-19T09:41:45.045Z,8.80
2023-02-19T09:42:45.183Z,8.49
2023-02-19T09:43:45.381Z,8.22
2023-02-19T09:44:45.488Z,8.04
2023-02-19T09:45:45.609Z,8.02
2023-02-19T09:46:45.731Z,7.95
2023-02-19T09:47:45.853Z,7.96
2023-02-19T09:48:46.027Z,7.88
2023-02-19T09:49:46.151Z,7.79
2023-02-19T09:50:46.651Z,7.77
2023-02-19T09:51:46.401Z,7.79
2023-02-19T09:52:46.541Z,7.88
2023-02-19T09:53:46.649Z,7.88
2023-02-19T09:54:46.748Z,7.92
2023-02-19T09:55:46.878Z,7.92
2023-02-19T09:56:47.008Z,7.94
2023-02-19T09:57:47.169Z,8.04
2023-02-19T09:58:47.324Z,8.06
2023-02-19T09:59:47.455Z,8.13
2023-02-19T10:00:47.597Z,8.13
2023-02-19T10:01:47.880Z,8.17
2023-02-19T10:02:47.925Z,8.20
2023-02-19T10:03:48.135Z,8.20
2023-02-19T10:04:48.240Z,8.12
2023-02-19T10:05:48.289Z,8.09
2023-02-19T10:06:48.427Z,8.12
2023-02-19T10:07:48.586Z,8.18
2023-02-19T10:08:48.723Z,8.25
2023-02-19T10:09:48.876Z,8.29
2023-02-19T10:10:49.036Z,8.31
2023-02-19T10:11:49.176Z,8.32
2023-02-19T10:12:49.303Z,8.42
2023-02-19T10:13:49.423Z,8.42
2023-02-19T10:14:49.584Z,8.37
2023-02-19T10:15:49.850Z,8.36
2023-02-19T10:16:49.893Z,8.29
2023-02-19T10:17:50.024Z,8.29
2023-02-19T10:18:50.163Z,8.32
2023-02-19T10:19:50.280Z,8.40
2023-02-19T10:20:50.428Z,8.47
2023-02-19T10:21:50.650Z,8.52
2023-02-19T10:22:50.682Z,8.58
2023-02-19T10:23:50.834Z,8.60
2023-02-19T10:24:50.992Z,8.58
2023-02-19T10:25:51.144Z,8.63
2023-02-19T10:26:51.955Z,8.68
2023-02-19T10:27:51.386Z,8.65
2023-02-19T10:28:51.521Z,8.79
2023-02-19T10:29:51.672Z,8.91
2023-02-19T10:30:51.880Z,8.96
2023-02-19T10:31:52.029Z,8.94
2023-02-19T10:32:52.122Z,8.94
2023-02-19T10:33:52.219Z,8.96
2023-02-19T10:34:52.384Z,8.83
2023-02-19T10:35:52.554Z,8.83
2023-02-19T10:36:52.673Z,8.79
2023-02-19T10:37:52.802Z,8.65
2023-02-19T10:38:52.943Z,8.45
2023-02-19T10:39:53.105Z,8.43
2023-02-19T10:40:53.242Z,8.42
2023-02-19T10:41:53.386Z,8.43
2023-02-19T10:42:53.544Z,8.47
2023-02-19T10:43:53.707Z,8.52
2023-02-19T10:44:53.852Z,8.49
2023-02-19T10:45:54.024Z,8.49
2023-02-19T10:46:54.153Z,8.46
2023-02-19T10:47:54.284Z,8.34
2023-02-19T10:48:54.416Z,8.29
2023-02-19T10:49:54.538Z,8.29
2023-02-19T10:50:54.677Z,8.25
2023-02-19T10:51:54.842Z,8.34
2023-02-19T10:52:54.992Z,8.39
2023-02-19T10:53:55.120Z,8.47
2023-02-19T10:54:55.268Z,8.54
2023-02-19T10:55:55.362Z,8.61
2023-02-19T10:56:55.540Z,8.68
2023-02-19T10:57:55.720Z,8.65
2023-02-19T10:58:55.823Z,8.61
2023-02-19T10:59:55.966Z,8.57
2023-02-19T11:00:56.140Z,8.42
2023-02-19T11:01:56.344Z,8.34
2023-02-19T11:02:56.423Z,8.34
2023-02-19T11:03:56.551Z,8.28
2023-02-19T11:04:56.689Z,8.31
2023-02-19T11:05:56.855Z,8.29
2023-02-19T11:06:57.009Z,8.32
2023-02-19T11:07:57.230Z,8.39
2023-02-19T11:08:57.266Z,8.40
2023-02-19T11:09:57.423Z,8.40
2023-02-19T11:10:57.559Z,8.39
2023-02-19T11:11:57.698Z,8.37
2023-02-19T11:12:57.849Z,8.34
2023-02-19T11:13:58.050Z,8.40
2023-02-19T11:14:58.117Z,8.50
2023-02-19T11:15:58.273Z,8.54
2023-02-19T11:16:58.416Z,8.49
2023-02-19T11:17:58.479Z,8.45
2023-02-19T11:18:58.656Z,8.37
2023-02-19T11:19:58.798Z,8.32
2023-02-19T11:20:58.932Z,8.27
2023-02-19T11:21:59.066Z,8.28
2023-02-19T11:22:59.809Z,8.36
2023-02-19T11:23:59.301Z,8.42
2023-02-19T11:24:59.598Z,8.46
2023-02-19T11:25:59.586Z,8.46
2023-02-19T11:26:59.707Z,8.52
2023-02-19T11:27:59.868Z,8.57
2023-02-19T11:29:00.028Z,8.55
2023-02-19T11:30:00.299Z,8.50
2023-02-19T11:31:00.374Z,8.50
2023-02-19T11:32:00.542Z,8.57
2023-02-19T11:33:00.588Z,8.61
2023-02-19T11:34:00.756Z,8.65
2023-02-19T11:35:00.899Z,8.71
2023-02-19T11:36:01.058Z,8.78
2023-02-19T11:37:01.201Z,8.76
2023-02-19T11:38:01.366Z,8.71
2023-02-19T11:39:01.543Z,8.73
2023-02-19T11:40:01.716Z,8.79
2023-02-19T11:41:02.593Z,8.86
2023-02-19T11:42:02.036Z,8.94
2023-02-19T11:43:02.200Z,9.08
2023-02-19T11:44:02.281Z,9.15
2023-02-19T11:45:02.460Z,9.10
2023-02-19T11:46:02.604Z,9.13
2023-02-19T11:47:02.762Z,9.19
2023-02-19T11:48:02.916Z,9.23
2023-02-19T11:49:03.083Z,9.27
2023-02-19T11:50:03.178Z,9.22
2023-02-19T11:51:03.299Z,9.22
2023-02-19T11:52:03.442Z,9.23
2023-02-19T11:53:03.611Z,9.19
2023-02-19T11:54:03.733Z,9.03
2023-02-19T11:55:03.890Z,9.12
2023-02-19T11:56:03.983Z,9.20
2023-02-19T11:57:04.120Z,9.31
2023-02-19T11:58:04.261Z,9.35
2023-02-19T11:59:04.430Z,9.40
2023-02-19T12:00:04.549Z,9.38
2023-02-19T12:01:04.714Z,9.34
2023-02-19T12:02:04.941Z,9.26
2023-02-19T12:03:05.002Z,9.24
2023-02-19T12:04:05.159Z,9.20
2023-02-19T12:05:05.361Z,9.20
2023-02-19T12:06:05.424Z,9.16
2023-02-19T12:07:05.578Z,9.15
2023-02-19T12:08:05.709Z,9.16
2023-02-19T12:09:05.784Z,9.03
2023-02-19T12:10:05.945Z,9.06
2023-02-19T12:11:06.087Z,9.10
2023-02-19T12:12:06.246Z,9.12
2023-02-19T12:13:06.418Z,9.04
2023-02-19T12:14:06.486Z,8.98
2023-02-19T12:15:06.629Z,8.97
2023-02-19T12:16:06.837Z,8.91
2023-02-19T12:17:06.924Z,8.94
2023-02-19T12:18:07.026Z,8.97
2023-02-19T12:19:07.192Z,8.98
2023-02-19T12:20:07.305Z,9.00
2023-02-19T12:21:07.448Z,8.96
2023-02-19T12:22:07.637Z,9.04
2023-02-19T12:23:07.794Z,9.08
2023-02-19T12:24:07.945Z,9.12
2023-02-19T12:25:09.082Z,9.13
2023-02-19T12:26:08.524Z,9.13
2023-02-19T12:27:08.385Z,9.17
2023-02-19T12:28:08.505Z,9.19
2023-02-19T12:29:08.670Z,9.16
2023-02-19T12:30:08.838Z,9.10
2023-02-19T12:31:09.042Z,9.03
2023-02-19T12:32:09.132Z,9.00
2023-02-19T12:33:09.242Z,9.00
2023-02-19T12:34:09.375Z,9.01
2023-02-19T12:35:09.534Z,9.12
2023-02-19T12:36:09.984Z,9.06
2023-02-19T12:37:09.745Z,9.17
2023-02-19T12:38:09.943Z,9.24
2023-02-19T12:39:10.037Z,9.30
2023-02-19T12:40:10.230Z,9.34
2023-02-19T12:41:10.391Z,9.31
2023-02-19T12:42:10.474Z,9.32
2023-02-19T12:43:10.627Z,9.32
2023-02-19T12:44:10.831Z,9.37
2023-02-19T12:45:10.884Z,9.34
2023-02-19T12:46:11.418Z,9.34
2023-02-19T12:47:11.193Z,9.32
2023-02-19T12:48:11.349Z,9.35
2023-02-19T12:49:11.445Z,9.34
2023-02-19T12:50:11.656Z,9.34
2023-02-19T12:51:11.665Z,9.31
2023-02-19T12:52:11.910Z,9.31
2023-02-19T12:53:11.934Z,9.31
2023-02-19T12:54:12.083Z,9.26
2023-02-19T12:55:12.174Z,9.26
2023-02-19T12:56:12.592Z,9.19
2023-02-19T12:57:12.466Z,9.17
2023-02-19T12:58:12.625Z,9.23
2023-02-19T12:59:12.768Z,9.31
2023-02-19T13:00:12.909Z,9.34
2023-02-19T13:01:13.103Z,9.38
2023-02-19T13:02:13.272Z,9.31
2023-02-19T13:03:13.346Z,9.30
2023-02-19T13:04:13.495Z,9.24
2023-02-19T13:05:13.663Z,9.26
2023-02-19T13:06:14.142Z,9.24
2023-02-19T13:07:13.886Z,9.24
2023-02-19T13:08:14.056Z,9.17
2023-02-19T13:09:14.190Z,9.15
2023-02-19T13:10:14.314Z,9.15
2023-02-19T13:11:14.686Z,9.10
2023-02-19T13:12:14.704Z,9.10
2023-02-19T13:13:14.744Z,9.01
2023-02-19T13:14:14.895Z,9.01
2023-02-19T13:15:15.053Z,9.10